createdAt,value
2019-04-20T00:03:07.792Z,14
2019-04-20T00:08:16.602Z,11
2019-04-20T00:13:23.891Z,15
2019-04-20T00:18:15.254Z,15
2019-04-20T00:23:22.540Z,13
2019-04-20T00:28:39.617Z,14
2019-04-20T00:33:36.756Z,17
2019-04-20T00:38:26.809Z,15
2019-04-20T00:43:32.118Z,16
2019-04-20T00:48:37.255Z,16
2019-04-20T00:53:37.945Z,16
2019-04-20T00:58:48.961Z,18
2019-04-20T01:03:49.314Z,17
2019-04-20T01:08:40.175Z,16
2019-04-20T01:13:49.348Z,16
2019-04-20T01:18:47.101Z,17
2019-04-20T01:23:53.000Z,13
2019-04-20T01:28:58.149Z,14
2019-04-20T01:34:00.560Z,15
2019-04-20T01:39:07.382Z,16
2019-04-20T01:43:56.961Z,15
2019-04-20T01:49:05.562Z,17
2019-04-20T01:54:15.712Z,19
2019-04-20T01:59:19.397Z,18
2019-04-20T02:04:11.878Z,16
2019-04-20T02:09:13.348Z,16
2019-04-20T02:14:13.710Z,16
2019-04-20T02:19:30.007Z,13
2019-04-20T02:24:17.820Z,15
2019-04-20T02:29:38.833Z,19
2019-04-20T02:34:54.537Z,15
2019-04-20T02:39:59.713Z,16
2019-04-20T02:45:08.402Z,18
2019-04-20T02:49:56.259Z,15
2019-04-20T03:00:05.135Z,16
2019-04-20T03:04:43.766Z,16
2019-04-20T03:09:56.147Z,14
2019-04-20T03:14:54.939Z,18
2019-04-20T03:19:55.446Z,18
2019-04-20T03:24:58.707Z,21
2019-04-20T03:30:14.509Z,17
2019-04-20T03:35:18.142Z,19
2019-04-20T03:40:08.162Z,16
2019-04-20T03:45:03.092Z,18
2019-04-20T03:50:23.858Z,18
2019-04-20T04:00:21.382Z,18
2019-04-20T04:05:23.448Z,23
2019-04-20T04:10:20.507Z,19
2019-04-20T04:15:10.908Z,16
2019-04-20T04:20:16.502Z,19
2019-04-20T04:25:24.833Z,17
2019-04-20T04:30:32.780Z,18
2019-04-20T04:35:32.204Z,16
2019-04-20T04:40:49.095Z,20
2019-04-20T04:45:28.478Z,17
2019-04-20T04:50:30.121Z,18
2019-04-20T05:00:34.616Z,18
2019-04-20T05:10:39.162Z,19
2019-04-20T05:15:52.327Z,18
2019-04-20T05:21:04.155Z,17
2019-04-20T05:26:07.187Z,14
2019-04-20T05:30:52.415Z,19
2019-04-20T05:36:11.220Z,18
2019-04-20T05:41:11.194Z,18
2019-04-20T05:46:16.797Z,16
2019-04-20T05:56:14.080Z,16
2019-04-20T06:01:24.538Z,17
2019-04-20T06:06:27.076Z,17
2019-04-20T06:11:25.446Z,20
2019-04-20T06:16:26.939Z,21
2019-04-20T06:21:50.181Z,21
2019-04-20T06:26:48.681Z,14
2019-04-20T06:31:35.160Z,16
2019-04-20T06:41:59.780Z,12
2019-04-20T06:46:52.310Z,13
2019-04-20T06:51:47.215Z,12
2019-04-20T06:56:47.016Z,12
2019-04-20T07:02:02.661Z,12
2019-04-20T07:07:02.159Z,12
2019-04-20T07:11:56.437Z,11
2019-04-20T07:16:57.174Z,11
2019-04-20T07:27:05.985Z,11
2019-04-20T07:37:34.978Z,12
2019-04-20T07:42:07.862Z,12
2019-04-20T07:47:21.633Z,9
2019-04-20T07:51:57.587Z,10
2019-04-20T07:57:19.116Z,9
2019-04-20T08:02:31.892Z,10
2019-04-20T08:07:07.728Z,9
2019-04-20T08:12:31.146Z,11
2019-04-20T08:17:44.118Z,9
2019-04-20T08:22:33.228Z,9
2019-04-20T08:27:15.867Z,9
2019-04-20T08:37:38.398Z,10
2019-04-20T08:42:49.443Z,8
2019-04-20T08:47:49.728Z,8
2019-04-20T08:57:29.241Z,8
2019-04-20T09:02:32.495Z,7
2019-04-20T09:07:41.351Z,10
2019-04-20T09:12:53.036Z,9
2019-04-20T09:17:46.281Z,11
2019-04-20T09:22:48.968Z,11
2019-04-20T09:27:50.680Z,9
2019-04-20T09:33:04.427Z,9
2019-04-20T09:38:04.756Z,10
2019-04-20T09:42:50.880Z,10
2019-04-20T09:47:55.233Z,9
2019-04-20T09:53:08.618Z,9
2019-04-20T09:58:12.207Z,9
2019-04-20T10:03:00.710Z,9
2019-04-20T10:08:06.692Z,9
2019-04-20T10:13:07.188Z,9
2019-04-20T10:18:08.056Z,10
2019-04-20T10:23:12.315Z,10
2019-04-20T10:28:13.827Z,9
2019-04-20T10:33:15.586Z,9
2019-04-20T10:38:17.963Z,10
2019-04-20T10:43:21.760Z,9
2019-04-20T10:48:23.484Z,9
2019-04-20T10:53:25.957Z,10
2019-04-20T10:58:27.761Z,10
2019-04-20T11:03:30.208Z,10
2019-04-20T11:08:32.918Z,10
2019-04-20T11:13:35.351Z,10
2019-04-20T11:18:37.772Z,13
2019-04-20T11:23:40.531Z,9
2019-04-20T11:28:43.936Z,10
2019-04-20T11:33:45.856Z,9
2019-04-20T11:38:47.510Z,10
2019-04-20T11:43:51.437Z,11
2019-04-20T11:48:52.481Z,9
2019-04-20T11:53:56.400Z,8
2019-04-20T11:58:58.750Z,10
2019-04-20T12:04:06.090Z,9
2019-04-20T12:09:03.047Z,9
2019-04-20T12:14:04.796Z,9
2019-04-20T12:19:08.435Z,10
2019-04-20T12:24:10.215Z,9
2019-04-20T12:29:12.245Z,9
2019-04-20T12:34:16.012Z,9
2019-04-20T12:39:17.304Z,9
2019-04-20T12:44:19.729Z,9
2019-04-20T12:49:23.304Z,9
2019-04-20T12:54:24.944Z,9
2019-04-20T12:59:27.511Z,8
2019-04-20T13:04:30.143Z,9
2019-04-20T13:09:32.581Z,10
2019-04-20T13:14:34.612Z,9
2019-04-20T13:19:37.387Z,9
2019-04-20T13:24:40.885Z,9
2019-04-20T13:29:42.769Z,9
2019-04-20T13:34:44.496Z,9
2019-04-20T13:39:46.904Z,9
2019-04-20T13:44:49.043Z,10
2019-04-20T13:49:52.534Z,12
2019-04-20T13:54:54.057Z,9
2019-04-20T13:59:58.010Z,12
2019-04-20T14:04:59.066Z,10
2019-04-20T14:10:01.813Z,9
2019-04-20T14:15:05.001Z,9
2019-04-20T14:20:10.404Z,9
2019-04-20T14:25:09.122Z,12
2019-04-20T14:30:11.192Z,9
2019-04-20T14:35:14.568Z,10
2019-04-20T14:40:16.601Z,11
2019-04-20T14:45:18.662Z,11
2019-04-20T14:55:24.170Z,10
2019-04-20T15:00:25.925Z,9
2019-04-20T15:05:28.840Z,10
2019-04-20T15:10:31.107Z,10
2019-04-20T15:15:34.517Z,10
2019-04-20T15:20:35.802Z,9
2019-04-20T15:30:40.718Z,9
2019-04-20T15:35:44.144Z,8
2019-04-20T15:45:49.458Z,7
2019-04-20T15:50:51.859Z,11
2019-04-20T15:55:53.480Z,8
2019-04-20T16:00:56.490Z,7
2019-04-20T16:05:58.902Z,8
2019-04-20T16:11:01.351Z,7
2019-04-20T16:16:03.640Z,10
2019-04-20T16:21:09.653Z,14
2019-04-20T16:26:07.968Z,7
2019-04-20T16:31:12.248Z,7
2019-04-20T16:36:12.739Z,7
2019-04-20T16:41:15.108Z,7
2019-04-20T16:46:20.202Z,9
2019-04-20T16:51:20.806Z,7
2019-04-20T16:56:22.605Z,9
2019-04-20T17:01:25.581Z,6
2019-04-20T17:06:27.433Z,8
2019-04-20T17:11:31.715Z,7
2019-04-20T17:16:33.467Z,8
2019-04-20T17:21:35.544Z,13
2019-04-20T17:26:37.276Z,9
2019-04-20T17:31:39.910Z,11
2019-04-20T17:36:42.304Z,9
2019-04-20T17:42:00.059Z,10
2019-04-20T17:46:58.654Z,10
2019-04-20T17:52:09.935Z,13
2019-04-20T17:56:52.213Z,9
2019-04-20T18:02:06.495Z,15
2019-04-20T18:07:09.617Z,10
2019-04-20T18:12:04.494Z,10
2019-04-20T18:17:13.633Z,9
2019-04-20T18:22:05.656Z,10
2019-04-20T18:27:27.435Z,10
2019-04-20T18:32:09.331Z,15
2019-04-20T18:37:16.479Z,17
2019-04-20T18:42:20.972Z,17
2019-04-20T18:47:32.898Z,16
2019-04-20T18:52:19.757Z,14
2019-04-20T18:57:25.833Z,13
2019-04-20T19:02:27.800Z,13
2019-04-20T19:07:27.846Z,19
2019-04-20T19:12:36.561Z,34
2019-04-20T19:17:44.947Z,14
2019-04-20T19:22:35.564Z,13
2019-04-20T19:27:43.249Z,18
2019-04-20T19:32:51.355Z,9
2019-04-20T19:37:53.614Z,12
2019-04-20T19:42:58.828Z,15
2019-04-20T19:53:16.281Z,14
2019-04-20T19:58:06.082Z,11
2019-04-20T20:02:54.107Z,11
2019-04-20T20:08:03.737Z,15
2019-04-20T20:13:01.084Z,13
2019-04-20T20:23:03.721Z,11
2019-04-20T20:28:23.914Z,13
2019-04-20T20:33:27.675Z,12
2019-04-20T20:38:18.952Z,11
2019-04-20T20:43:22.560Z,13
2019-04-20T20:48:29.518Z,13
2019-04-20T20:53:32.497Z,11
2019-04-20T21:03:31.137Z,13
2019-04-20T21:08:25.820Z,15
2019-04-20T21:13:33.176Z,12
2019-04-20T21:18:47.034Z,11
2019-04-20T21:23:45.419Z,11
2019-04-20T21:28:36.235Z,16
2019-04-20T21:33:39.720Z,17
2019-04-20T21:38:42.383Z,18
2019-04-20T21:43:44.519Z,18
2019-04-20T21:48:59.443Z,16
2019-04-20T21:53:48.289Z,14
2019-04-20T21:58:55.261Z,13
2019-04-20T22:03:52.447Z,14
2019-04-20T22:08:59.896Z,14
2019-04-20T22:13:57.521Z,17
2019-04-20T22:19:15.370Z,14
2019-04-20T22:24:13.219Z,15
2019-04-20T22:29:05.929Z,19
2019-04-20T22:34:13.825Z,15
2019-04-20T22:39:11.520Z,17
2019-04-20T22:44:16.954Z,16
2019-04-20T22:49:31.932Z,16
2019-04-20T22:54:33.347Z,19
2019-04-20T23:04:22.238Z,16
2019-04-20T23:14:26.847Z,19
2019-04-20T23:19:37.968Z,18
2019-04-20T23:24:33.059Z,20
2019-04-20T23:29:37.701Z,19
2019-04-20T23:34:38.865Z,17
2019-04-20T23:39:41.411Z,18
2019-04-20T23:44:45.661Z,16
2019-04-20T23:50:02.888Z,15
2019-04-20T23:54:51.064Z,15
2019-04-20T23:59:50.201Z,15
